Time;durP1;ratioP1;P1;durP2;ratioP2;P2;SDS_P1;SDS_P2;PMS_P1;PMS_P2;Temp;Humidity;BMP_temperature;BMP_pressure;BME280_temperature;BME280_humidity;BME280_pressure;Samples;Min_cycle;Max_cycle;Signal;HPM_P1;HPM_P2
2023/01/24 00:01:25;;;;;;;;;;;20.40;84.20;;;;;;5094494;28;20247;-43
2023/01/24 00:03:51;;;;;;;;;;;20.40;84.10;;;;;;5094213;28;19908;-45
2023/01/24 00:06:16;;;;;;;;;;;20.40;84.20;;;;;;5094501;28;20334;-46
2023/01/24 00:08:42;;;;;;;;;;;20.40;84.00;;;;;;5094416;28;19908;-43
2023/01/24 00:11:08;;;;;;;;;;;20.50;84.00;;;;;;5094378;28;19915;-42
2023/01/24 00:13:34;;;;;;;;;;;20.60;83.70;;;;;;5094318;28;19908;-44
2023/01/24 00:16:02;;;;;;;;;;;20.60;83.40;;;;;;5094218;28;19927;-43
2023/01/24 00:18:28;;;;;;;;;;;20.70;83.20;;;;;;5094314;28;19912;-43
2023/01/24 00:20:59;;;;;;;;;;;20.70;83.20;;;;;;5093907;28;19962;-44
2023/01/24 00:23:25;;;;;;;;;;;20.70;83.10;;;;;;5094004;28;19958;-43
2023/01/24 00:25:50;;;;;;;;;;;20.80;83.00;;;;;;5093896;28;19908;-43
2023/01/24 00:28:16;;;;;;;;;;;20.70;83.20;;;;;;5094232;28;20012;-44
2023/01/24 00:30:41;;;;;;;;;;;20.70;83.20;;;;;;5094159;28;19908;-43
2023/01/24 00:33:07;;;;;;;;;;;20.60;83.00;;;;;;5093960;28;19915;-44
2023/01/24 00:35:32;;;;;;;;;;;20.50;83.40;;;;;;5093912;28;19984;-43
2023/01/24 00:37:58;;;;;;;;;;;20.50;83.80;;;;;;5094086;28;19966;-43
2023/01/24 00:40:23;;;;;;;;;;;20.30;84.00;;;;;;5092412;28;19912;-43
2023/01/24 00:42:48;;;;;;;;;;;20.30;83.90;;;;;;5094876;28;19923;-46
2023/01/24 00:45:14;;;;;;;;;;;20.20;84.20;;;;;;5098782;28;19923;-44
2023/01/24 00:47:39;;;;;;;;;;;20.20;84.50;;;;;;5075919;28;19908;-45
2023/01/24 00:50:05;;;;;;;;;;;20.20;84.60;;;;;;5098253;28;19912;-43
2023/01/24 00:52:30;;;;;;;;;;;20.20;84.60;;;;;;5107847;28;20002;-43
2023/01/24 00:54:56;;;;;;;;;;;20.30;84.40;;;;;;5093216;28;19920;-42
2023/01/24 00:57:22;;;;;;;;;;;20.40;84.20;;;;;;5086448;28;20382;-43
2023/01/24 00:59:47;;;;;;;;;;;20.60;83.60;;;;;;5097621;28;19915;-43
2023/01/24 01:02:13;;;;;;;;;;;20.90;83.30;;;;;;5094844;28;19912;-42
2023/01/24 01:04:38;;;;;;;;;;;21.00;82.70;;;;;;5086292;28;19915;-43
2023/01/24 01:07:03;;;;;;;;;;;21.00;82.40;;;;;;5097750;28;20359;-44
2023/01/24 01:09:29;;;;;;;;;;;21.00;82.50;;;;;;5097362;28;19912;-44
2023/01/24 01:11:54;;;;;;;;;;;20.90;82.40;;;;;;5097309;28;19974;-44
2023/01/24 01:14:20;;;;;;;;;;;20.80;83.00;;;;;;5097580;28;19916;-43
2023/01/24 01:16:45;;;;;;;;;;;20.70;83.30;;;;;;5097240;28;19963;-44
2023/01/24 01:19:11;;;;;;;;;;;20.50;83.20;;;;;;5097070;28;19908;-43
2023/01/24 01:21:36;;;;;;;;;;;20.40;83.60;;;;;;5097394;28;20373;-43
2023/01/24 01:24:02;;;;;;;;;;;20.30;83.80;;;;;;5095600;28;19927;-43
2023/01/24 01:26:27;;;;;;;;;;;20.30;84.20;;;;;;5103807;28;19918;-44
2023/01/24 01:28:53;;;;;;;;;;;20.30;84.20;;;;;;5097354;28;20355;-43
2023/01/24 01:31:18;;;;;;;;;;;20.30;84.30;;;;;;5100645;28;19913;-44
2023/01/24 01:33:44;;;;;;;;;;;20.40;84.00;;;;;;5114419;28;20289;-43
2023/01/24 01:36:09;;;;;;;;;;;20.50;84.10;;;;;;5097580;28;19989;-45
2023/01/24 01:38:35;;;;;;;;;;;20.70;83.70;;;;;;5096744;28;19927;-43
2023/01/24 01:41:00;;;;;;;;;;;20.80;83.20;;;;;;5111233;28;20003;-45
2023/01/24 01:43:27;;;;;;;;;;;20.80;82.90;;;;;;5113981;28;19918;-44
2023/01/24 01:45:54;;;;;;;;;;;20.80;82.90;;;;;;5117396;28;19912;-43
2023/01/24 01:48:33;;;;;;;;;;;20.80;82.90;;;;;;5086652;28;19923;-43
2023/01/24 01:51:02;;;;;;;;;;;20.70;82.70;;;;;;5095799;28;19912;-43
2023/01/24 01:53:29;;;;;;;;;;;20.60;83.70;;;;;;5096513;28;20327;-43
2023/01/24 01:55:59;;;;;;;;;;;20.50;83.40;;;;;;5113985;28;19965;-45
2023/01/24 01:58:25;;;;;;;;;;;20.40;83.70;;;;;;5117196;28;19994;-43
2023/01/24 02:00:50;;;;;;;;;;;20.30;84.00;;;;;;5114289;28;19920;-43
2023/01/24 02:06:03;;;;;;;;;;;20.20;84.60;;;;;;5096617;28;19915;-43
2023/01/24 02:08:29;;;;;;;;;;;20.30;84.60;;;;;;5096055;28;19908;-42
2023/01/24 02:13:43;;;;;;;;;;;20.60;83.80;;;;;;5096180;28;20391;-43
2023/01/24 02:16:09;;;;;;;;;;;20.80;83.10;;;;;;5084337;28;19927;-44
2023/01/24 02:18:36;;;;;;;;;;;20.90;82.90;;;;;;5094674;28;19915;-44
2023/01/24 02:21:03;;;;;;;;;;;20.90;82.60;;;;;;5107994;28;20366;-43
2023/01/24 02:23:43;;;;;;;;;;;20.90;82.60;;;;;;5096133;28;19987;-43
2023/01/24 02:26:13;;;;;;;;;;;20.90;82.70;;;;;;5096353;28;19912;-43
2023/01/24 02:28:40;;;;;;;;;;;20.80;83.10;;;;;;5096222;28;19908;-45
2023/01/24 02:31:05;;;;;;;;;;;20.60;83.40;;;;;;5095855;28;19915;-43
2023/01/24 02:33:31;;;;;;;;;;;20.50;83.70;;;;;;5096067;28;20016;-43
2023/01/24 02:36:10;;;;;;;;;;;20.40;84.00;;;;;;5095678;28;19959;-43
2023/01/24 02:38:36;;;;;;;;;;;20.30;84.00;;;;;;5095950;28;19920;-43
2023/01/24 02:41:06;;;;;;;;;;;20.30;84.40;;;;;;5095638;28;19915;-43
2023/01/24 02:43:34;;;;;;;;;;;20.30;84.60;;;;;;5095847;28;19990;-43
2023/01/24 02:45:59;;;;;;;;;;;20.40;84.30;;;;;;5077669;28;19966;-43
2023/01/24 02:48:25;;;;;;;;;;;20.70;83.50;;;;;;5077672;28;19908;-42
2023/01/24 02:53:34;;;;;;;;;;;21.10;82.50;;;;;;5095806;28;20011;-44
2023/01/24 02:58:48;;;;;;;;;;;21.00;82.50;;;;;;5095433;28;19914;-42
2023/01/24 03:01:17;;;;;;;;;;;20.90;82.60;;;;;;5095547;28;19908;-42
2023/01/24 03:03:43;;;;;;;;;;;20.70;83.00;;;;;;5095519;28;19977;-43
2023/01/24 03:06:10;;;;;;;;;;;20.60;83.20;;;;;;5095391;28;19995;-42
2023/01/24 03:08:36;;;;;;;;;;;20.50;83.70;;;;;;5095395;28;19908;-42
2023/01/24 03:11:02;;;;;;;;;;;20.40;84.00;;;;;;5095685;28;19908;-42
2023/01/24 03:35:22;;;;;;;;;;;20.00;85.10;;;;;;5094710;28;19923;-42
2023/01/24 03:40:32;;;;;;;;;;;20.10;84.90;;;;;;5093781;28;20042;-43
2023/01/24 03:42:58;;;;;;;;;;;20.20;84.80;;;;;;5094002;28;19909;-44
2023/01/24 03:45:25;;;;;;;;;;;20.30;84.30;;;;;;5093985;28;19960;-45
2023/01/24 03:47:54;;;;;;;;;;;20.30;84.20;;;;;;5093637;28;19908;-43
2023/01/24 03:53:08;;;;;;;;;;;20.30;83.80;;;;;;5093948;28;19915;-45
2023/01/24 03:55:33;;;;;;;;;;;20.30;83.80;;;;;;5093842;28;19915;-43
2023/01/24 03:57:59;;;;;;;;;;;20.30;84.00;;;;;;5093494;28;20014;-42
2023/01/24 04:00:24;;;;;;;;;;;20.30;84.10;;;;;;5093422;28;20007;-42
2023/01/24 04:02:50;;;;;;;;;;;20.30;84.20;;;;;;5093361;28;19969;-42
2023/01/24 04:05:15;;;;;;;;;;;20.30;84.40;;;;;;5093592;28;19919;-42
2023/01/24 04:07:41;;;;;;;;;;;20.40;84.20;;;;;;5093870;28;19909;-43
2023/01/24 04:10:07;;;;;;;;;;;20.40;84.10;;;;;;5093441;28;19919;-44
2023/01/24 04:12:32;;;;;;;;;;;20.50;83.80;;;;;;5093152;28;19908;-42
2023/01/24 04:14:58;;;;;;;;;;;20.50;83.90;;;;;;5093317;28;20274;-42
2023/01/24 04:17:23;;;;;;;;;;;20.60;83.70;;;;;;5093725;28;19909;-45
2023/01/24 04:19:48;;;;;;;;;;;20.60;83.40;;;;;;5093201;28;19919;-42
2023/01/24 04:22:15;;;;;;;;;;;20.60;83.40;;;;;;5093154;28;19977;-42
2023/01/24 04:24:41;;;;;;;;;;;20.60;83.30;;;;;;5092100;28;19908;-43
2023/01/24 04:27:06;;;;;;;;;;;20.60;83.30;;;;;;5092931;28;20352;-42
2023/01/24 04:29:31;;;;;;;;;;;20.60;83.40;;;;;;5093274;28;19960;-42
2023/01/24 04:31:57;;;;;;;;;;;20.50;83.70;;;;;;5092887;28;19915;-42
2023/01/24 04:34:22;;;;;;;;;;;20.40;83.90;;;;;;5093191;28;20022;-44
2023/01/24 04:36:48;;;;;;;;;;;20.40;84.30;;;;;;5031148;28;1746767;-43
2023/01/24 04:39:13;;;;;;;;;;;20.30;84.30;;;;;;5094424;28;19912;-43
2023/01/24 04:41:39;;;;;;;;;;;20.20;84.60;;;;;;5093699;28;19931;-44
2023/01/24 04:44:04;;;;;;;;;;;20.10;84.60;;;;;;5093691;28;19946;-43
2023/01/24 04:46:30;;;;;;;;;;;20.10;84.70;;;;;;5093920;28;19961;-42
2023/01/24 04:48:55;;;;;;;;;;;20.10;84.70;;;;;;5093583;28;19961;-43
2023/01/24 04:51:21;;;;;;;;;;;20.20;84.60;;;;;;5093886;28;19970;-42
2023/01/24 04:53:46;;;;;;;;;;;20.30;84.60;;;;;;5093571;28;19911;-42
2023/01/24 04:56:12;;;;;;;;;;;20.40;84.30;;;;;;5093721;28;19912;-44
2023/01/24 04:58:37;;;;;;;;;;;20.50;83.60;;;;;;5093702;28;19959;-42
2023/01/24 05:01:02;;;;;;;;;;;20.70;83.20;;;;;;5093546;28;20277;-42
2023/01/24 05:03:28;;;;;;;;;;;20.80;83.00;;;;;;5093765;28;19908;-46
2023/01/24 05:05:54;;;;;;;;;;;20.80;82.80;;;;;;5093380;28;19908;-46
2023/01/24 05:08:20;;;;;;;;;;;20.70;83.20;;;;;;5093747;28;19955;-42
2023/01/24 05:10:45;;;;;;;;;;;20.60;83.30;;;;;;5093831;28;19952;-43
2023/01/24 05:13:11;;;;;;;;;;;20.50;83.70;;;;;;5093601;28;20057;-51
2023/01/24 05:15:36;;;;;;;;;;;20.40;84.00;;;;;;5093237;28;19916;-43
2023/01/24 05:18:02;;;;;;;;;;;20.30;84.30;;;;;;5093372;28;20098;-44
2023/01/24 05:20:28;;;;;;;;;;;20.20;84.50;;;;;;5093386;28;19914;-44
2023/01/24 05:22:56;;;;;;;;;;;20.10;84.60;;;;;;5093227;28;19908;-44
2023/01/24 05:25:22;;;;;;;;;;;20.10;84.70;;;;;;5093519;28;19912;-44
2023/01/24 05:27:47;;;;;;;;;;;20.10;84.70;;;;;;5093532;28;20002;-42
2023/01/24 05:30:13;;;;;;;;;;;20.20;84.50;;;;;;5093155;28;19909;-43
2023/01/24 05:32:38;;;;;;;;;;;20.40;84.30;;;;;;5093236;28;19916;-43
2023/01/24 05:35:04;;;;;;;;;;;20.50;83.80;;;;;;5093435;28;19912;-45
2023/01/24 05:37:30;;;;;;;;;;;20.60;83.40;;;;;;5096706;28;19956;-44
2023/01/24 05:39:55;;;;;;;;;;;20.60;83.30;;;;;;5096392;28;19914;-45
2023/01/24 05:42:21;;;;;;;;;;;20.60;83.10;;;;;;5078816;28;19919;-45
2023/01/24 05:44:46;;;;;;;;;;;20.60;83.40;;;;;;5096700;28;20408;-44
2023/01/24 05:47:12;;;;;;;;;;;20.40;83.50;;;;;;5096537;28;19908;-47
2023/01/24 05:49:37;;;;;;;;;;;20.30;83.90;;;;;;5096865;28;19966;-46
2023/01/24 05:52:02;;;;;;;;;;;20.30;84.00;;;;;;5096845;28;19946;-45
2023/01/24 05:54:28;;;;;;;;;;;20.20;84.90;;;;;;5078559;28;20275;-44
2023/01/24 05:56:53;;;;;;;;;;;20.20;84.40;;;;;;5096355;28;19934;-44
2023/01/24 05:59:19;;;;;;;;;;;20.20;84.50;;;;;;5096404;28;20331;-47
2023/01/24 06:01:44;;;;;;;;;;;20.30;84.20;;;;;;5096641;28;20361;-46
2023/01/24 06:04:10;;;;;;;;;;;20.40;83.60;;;;;;5096202;28;19908;-43
2023/01/24 06:06:35;;;;;;;;;;;20.60;83.20;;;;;;5096258;28;19917;-47
2023/01/24 06:09:01;;;;;;;;;;;20.80;82.80;;;;;;5078140;28;20298;-43
2023/01/24 06:11:27;;;;;;;;;;;20.90;82.40;;;;;;5095956;28;19908;-46
2023/01/24 06:13:53;;;;;;;;;;;21.00;82.20;;;;;;5096272;28;19953;-43
2023/01/24 06:16:20;;;;;;;;;;;21.00;82.30;;;;;;5096159;28;19927;-42
2023/01/24 06:18:46;;;;;;;;;;;20.90;82.10;;;;;;5096305;28;19915;-45
2023/01/24 06:21:14;;;;;;;;;;;20.90;82.60;;;;;;5096068;28;19961;-44
2023/01/24 06:23:40;;;;;;;;;;;20.70;83.10;;;;;;5095975;28;19912;-51
2023/01/24 06:26:07;;;;;;;;;;;20.60;83.50;;;;;;5092557;28;19912;-49
2023/01/24 06:28:33;;;;;;;;;;;20.50;83.10;;;;;;5096213;28;19947;-44
2023/01/24 06:31:33;;;;;;;;;;;20.40;83.60;;;;;;5095669;28;20420;-43
2023/01/24 06:33:59;;;;;;;;;;;20.30;83.90;;;;;;5052144;28;20005;-48
2023/01/24 06:36:30;;;;;;;;;;;20.30;84.30;;;;;;5095280;28;19974;-44
2023/01/24 06:38:56;;;;;;;;;;;20.30;84.20;;;;;;5097622;28;19909;-45
2023/01/24 06:41:21;;;;;;;;;;;20.40;84.00;;;;;;5102807;28;19919;-45
2023/01/24 06:43:47;;;;;;;;;;;20.60;83.90;;;;;;5099217;28;19911;-46
2023/01/24 06:46:13;;;;;;;;;;;20.80;83.20;;;;;;5111888;28;19944;-46
2023/01/24 06:48:41;;;;;;;;;;;21.00;82.50;;;;;;5093795;28;19918;-44
2023/01/24 06:51:09;;;;;;;;;;;21.10;77.60;;;;;;5093881;28;20374;-44
2023/01/24 06:53:35;;;;;;;;;;;21.00;75.60;;;;;;5094211;28;19946;-45
2023/01/24 06:56:00;;;;;;;;;;;21.00;80.20;;;;;;5077181;28;19952;-47
2023/01/24 06:58:26;;;;;;;;;;;20.90;79.00;;;;;;5102165;28;19920;-48
2023/01/24 07:00:52;;;;;;;;;;;20.70;81.60;;;;;;5100785;28;20015;-45
2023/01/24 07:03:18;;;;;;;;;;;20.60;81.90;;;;;;5094756;28;19916;-45
2023/01/24 07:05:43;;;;;;;;;;;20.60;82.30;;;;;;5094663;28;19962;-47
2023/01/24 07:08:09;;;;;;;;;;;20.40;82.70;;;;;;5094404;28;19964;-43
2023/01/24 07:10:34;;;;;;;;;;;20.30;83.20;;;;;;5093820;28;19953;-48
2023/01/24 07:13:00;;;;;;;;;;;20.10;83.40;;;;;;5095031;28;19915;-46
2023/01/24 07:15:25;;;;;;;;;;;20.00;83.70;;;;;;5095238;28;20345;-47
2023/01/24 07:17:51;;;;;;;;;;;19.90;83.90;;;;;;5094590;28;19912;-46
2023/01/24 07:20:16;;;;;;;;;;;19.80;84.20;;;;;;5095028;28;19908;-47
2023/01/24 07:22:42;;;;;;;;;;;19.80;84.50;;;;;;5094963;28;19908;-50
2023/01/24 07:25:11;;;;;;;;;;;19.70;84.70;;;;;;5095012;28;20351;-47
2023/01/24 07:27:37;;;;;;;;;;;19.60;84.80;;;;;;5094663;28;19908;-45
2023/01/24 07:30:03;;;;;;;;;;;19.50;85.00;;;;;;5094371;28;19916;-46
2023/01/24 07:32:29;;;;;;;;;;;19.40;85.10;;;;;;5094734;28;19912;-49
2023/01/24 07:34:54;;;;;;;;;;;19.30;85.20;;;;;;5094402;28;19937;-46
2023/01/24 07:37:21;;;;;;;;;;;19.30;85.30;;;;;;5094506;28;19930;-49
2023/01/24 07:39:47;;;;;;;;;;;19.20;85.50;;;;;;5094309;28;19961;-47
2023/01/24 07:42:12;;;;;;;;;;;19.20;85.60;;;;;;5094489;28;19908;-46
2023/01/24 07:44:38;;;;;;;;;;;19.20;85.60;;;;;;5094338;28;19940;-48
2023/01/24 07:47:03;;;;;;;;;;;19.10;85.70;;;;;;5094540;28;19912;-46
2023/01/24 07:49:28;;;;;;;;;;;19.00;85.80;;;;;;5094208;28;20489;-47
2023/01/24 07:51:54;;;;;;;;;;;19.00;85.90;;;;;;5094262;28;20363;-47
2023/01/24 07:54:19;;;;;;;;;;;18.90;85.90;;;;;;5094187;28;19912;-47
2023/01/24 07:56:45;;;;;;;;;;;18.90;85.90;;;;;;5094182;28;19914;-45
2023/01/24 07:59:11;;;;;;;;;;;18.80;86.00;;;;;;5093924;28;19915;-44
2023/01/24 08:01:36;;;;;;;;;;;18.80;86.10;;;;;;5093914;28;19908;-48
2023/01/24 08:04:02;;;;;;;;;;;18.80;86.20;;;;;;5093973;28;19908;-46
2023/01/24 08:06:27;;;;;;;;;;;18.70;86.20;;;;;;5094259;28;19931;-46
2023/01/24 08:08:52;;;;;;;;;;;18.70;86.10;;;;;;5093792;28;19908;-48
2023/01/24 08:11:18;;;;;;;;;;;18.70;86.10;;;;;;5094160;28;19908;-47
2023/01/24 08:13:44;;;;;;;;;;;18.70;86.20;;;;;;5094317;28;19934;-44
2023/01/24 08:16:09;;;;;;;;;;;18.60;86.30;;;;;;5093634;28;19920;-49
2023/01/24 08:18:39;;;;;;;;;;;18.50;86.30;;;;;;5093762;28;19995;-47
2023/01/24 08:21:05;;;;;;;;;;;18.50;86.40;;;;;;5093934;28;19908;-44
2023/01/24 08:23:30;;;;;;;;;;;18.50;86.40;;;;;;5094209;28;20317;-45
2023/01/24 08:25:59;;;;;;;;;;;18.50;86.50;;;;;;5093961;28;19955;-44
2023/01/24 08:28:25;;;;;;;;;;;18.50;86.50;;;;;;5094267;28;19908;-45
2023/01/24 08:30:50;;;;;;;;;;;18.40;86.50;;;;;;5093638;28;19908;-48
2023/01/24 08:33:18;;;;;;;;;;;18.40;86.50;;;;;;5093852;28;19932;-47
2023/01/24 08:35:47;;;;;;;;;;;18.40;86.60;;;;;;5093841;28;19928;-45
2023/01/24 08:38:13;;;;;;;;;;;18.40;86.60;;;;;;5093321;28;19976;-47
2023/01/24 08:40:39;;;;;;;;;;;18.30;86.70;;;;;;5093706;28;19908;-45
2023/01/24 08:43:04;;;;;;;;;;;18.30;86.70;;;;;;5093706;28;19916;-48
2023/01/24 08:45:30;;;;;;;;;;;18.30;86.70;;;;;;5093859;28;19916;-49
2023/01/24 08:47:55;;;;;;;;;;;18.30;86.70;;;;;;5093735;28;19947;-46
2023/01/24 08:50:21;;;;;;;;;;;18.30;86.70;;;;;;5093746;28;20014;-48
2023/01/24 08:52:47;;;;;;;;;;;18.30;86.70;;;;;;5093398;28;20298;-47
2023/01/24 08:55:12;;;;;;;;;;;18.30;86.70;;;;;;5093441;28;19917;-45
2023/01/24 08:57:38;;;;;;;;;;;18.20;86.70;;;;;;5093268;28;19912;-44
2023/01/24 09:00:04;;;;;;;;;;;18.20;86.60;;;;;;5093608;28;20387;-44
2023/01/24 09:02:32;;;;;;;;;;;18.20;86.60;;;;;;5093627;28;19916;-44
2023/01/24 09:04:57;;;;;;;;;;;18.20;86.60;;;;;;5093591;28;19912;-46
2023/01/24 09:07:24;;;;;;;;;;;18.20;86.60;;;;;;5093559;28;20260;-44
2023/01/24 09:09:49;;;;;;;;;;;18.20;86.60;;;;;;5093619;28;19908;-48
2023/01/24 09:12:15;;;;;;;;;;;18.20;86.70;;;;;;5078936;28;19909;-46
2023/01/24 09:14:40;;;;;;;;;;;18.20;86.70;;;;;;5097203;28;19923;-49
2023/01/24 09:17:06;;;;;;;;;;;18.20;86.70;;;;;;5097056;28;19908;-48
2023/01/24 09:19:31;;;;;;;;;;;18.20;86.70;;;;;;5078915;28;19908;-47
2023/01/24 09:21:56;;;;;;;;;;;18.10;86.70;;;;;;5097422;28;19908;-46
2023/01/24 09:24:23;;;;;;;;;;;18.10;86.70;;;;;;5097596;28;20400;-45
2023/01/24 09:26:48;;;;;;;;;;;18.10;86.70;;;;;;5097070;28;19961;-47
2023/01/24 09:29:14;;;;;;;;;;;18.10;86.60;;;;;;5078811;28;19912;-47
2023/01/24 09:31:39;;;;;;;;;;;18.10;86.70;;;;;;5097113;28;19912;-47
2023/01/24 09:34:05;;;;;;;;;;;18.10;86.70;;;;;;5097195;28;19908;-48
2023/01/24 09:36:30;;;;;;;;;;;18.10;86.70;;;;;;5096735;28;19955;-47
2023/01/24 09:38:56;;;;;;;;;;;18.00;86.70;;;;;;5096696;28;19915;-45
2023/01/24 09:41:32;;;;;;;;;;;18.10;86.70;;;;;;5096792;28;20016;-46
2023/01/24 09:44:11;;;;;;;;;;;18.10;86.70;;;;;;5096937;28;20371;-48
2023/01/24 09:46:38;;;;;;;;;;;18.00;86.70;;;;;;5096819;28;19908;-46
2023/01/24 09:49:11;;;;;;;;;;;18.10;86.70;;;;;;5096352;28;20283;-44
2023/01/24 09:51:41;;;;;;;;;;;18.10;86.70;;;;;;5096782;28;20402;-49
2023/01/24 09:54:12;;;;;;;;;;;18.10;86.70;;;;;;5096468;28;20248;-47
2023/01/24 09:56:41;;;;;;;;;;;18.10;86.60;;;;;;5096576;28;19916;-44
2023/01/24 09:59:20;;;;;;;;;;;18.10;86.60;;;;;;5096422;28;20008;-47
2023/01/24 10:01:49;;;;;;;;;;;18.00;86.60;;;;;;5096431;28;19970;-47
2023/01/24 10:04:25;;;;;;;;;;;18.00;86.60;;;;;;5096217;28;19914;-47
2023/01/24 10:07:10;;;;;;;;;;;18.10;86.70;;;;;;5096169;28;19908;-46
2023/01/24 10:09:43;;;;;;;;;;;18.10;86.60;;;;;;5096453;28;19915;-46
2023/01/24 10:12:20;;;;;;;;;;;18.00;86.60;;;;;;5096424;28;19915;-46
2023/01/24 10:15:05;;;;;;;;;;;18.00;86.50;;;;;;5095777;28;19919;-49
2023/01/24 10:17:46;;;;;;;;;;;18.00;86.60;;;;;;5096275;28;20061;-45
2023/01/24 10:20:30;;;;;;;;;;;18.00;86.60;;;;;;5095796;28;19909;-46
2023/01/24 10:23:08;;;;;;;;;;;18.00;86.60;;;;;;5095186;28;19931;-48
2023/01/24 10:25:44;;;;;;;;;;;17.90;87.10;;;;;;5077775;28;19911;-44
2023/01/24 10:28:16;;;;;;;;;;;17.90;86.50;;;;;;5096096;28;19916;-47
2023/01/24 10:30:45;;;;;;;;;;;17.90;86.60;;;;;;5096246;28;20244;-44
2023/01/24 10:33:14;;;;;;;;;;;17.90;86.60;;;;;;5095682;28;20011;-44
2023/01/24 10:35:47;;;;;;;;;;;17.90;86.50;;;;;;5095625;28;20308;-45
2023/01/24 10:38:15;;;;;;;;;;;17.90;86.50;;;;;;5095156;28;20004;-44
2023/01/24 10:40:50;;;;;;;;;;;17.90;86.50;;;;;;5095297;28;19908;-45
2023/01/24 10:43:16;;;;;;;;;;;17.90;86.50;;;;;;5095576;28;19908;-44
2023/01/24 10:45:44;;;;;;;;;;;17.90;86.50;;;;;;5095173;28;19908;-46
2023/01/24 10:48:18;;;;;;;;;;;17.90;86.50;;;;;;5095495;28;19912;-44
2023/01/24 10:50:44;;;;;;;;;;;17.90;86.50;;;;;;5095250;28;20378;-44
2023/01/24 10:53:13;;;;;;;;;;;17.90;86.50;;;;;;5095285;28;19954;-44
2023/01/24 10:55:39;;;;;;;;;;;17.90;86.40;;;;;;5095204;28;19916;-44
2023/01/24 10:58:16;;;;;;;;;;;17.90;86.40;;;;;;5094958;28;19909;-44
2023/01/24 11:00:43;;;;;;;;;;;18.00;86.30;;;;;;5095189;28;20319;-47
2023/01/24 11:03:18;;;;;;;;;;;18.00;86.20;;;;;;5095176;28;19908;-44
2023/01/24 11:05:46;;;;;;;;;;;18.00;86.20;;;;;;5095115;28;20011;-44
2023/01/24 11:08:16;;;;;;;;;;;18.00;86.20;;;;;;5095048;28;20303;-48
2023/01/24 11:10:42;;;;;;;;;;;18.00;86.10;;;;;;5094666;28;20354;-47
2023/01/24 11:13:24;;;;;;;;;;;18.00;86.10;;;;;;5094704;28;19912;-47
2023/01/24 11:15:51;;;;;;;;;;;18.00;86.10;;;;;;5094930;28;19966;-44
2023/01/24 11:18:20;;;;;;;;;;;18.00;86.20;;;;;;5094620;28;19984;-45
2023/01/24 11:20:46;;;;;;;;;;;18.00;86.20;;;;;;5094578;28;19908;-46
2023/01/24 11:23:14;;;;;;;;;;;17.90;86.20;;;;;;5095034;28;19908;-47
2023/01/24 11:25:56;;;;;;;;;;;17.90;86.20;;;;;;5094876;28;19919;-46
2023/01/24 11:28:23;;;;;;;;;;;17.90;86.20;;;;;;5094560;28;19908;-45
2023/01/24 11:30:49;;;;;;;;;;;17.90;86.20;;;;;;5094226;28;20282;-45
2023/01/24 11:33:36;;;;;;;;;;;17.80;86.30;;;;;;5094070;28;19916;-44
2023/01/24 11:36:03;;;;;;;;;;;17.80;86.30;;;;;;5094362;28;20007;-45
2023/01/24 11:38:32;;;;;;;;;;;17.80;86.20;;;;;;5094512;28;20007;-44
2023/01/24 11:41:11;;;;;;;;;;;17.80;86.20;;;;;;5094639;28;19915;-45
2023/01/24 11:43:49;;;;;;;;;;;17.80;86.20;;;;;;5076350;28;19927;-45
2023/01/24 11:46:21;;;;;;;;;;;17.80;86.30;;;;;;5093938;28;20006;-44
2023/01/24 11:48:54;;;;;;;;;;;17.80;86.20;;;;;;5094290;28;19953;-45
2023/01/24 11:51:19;;;;;;;;;;;17.80;86.20;;;;;;5094170;28;20398;-45
2023/01/24 11:53:51;;;;;;;;;;;17.80;86.30;;;;;;5094327;28;20037;-47
2023/01/24 11:56:20;;;;;;;;;;;17.70;86.20;;;;;;5094199;28;19916;-47
2023/01/24 11:58:49;;;;;;;;;;;17.70;86.30;;;;;;5094073;28;19908;-44
2023/01/24 12:01:14;;;;;;;;;;;17.70;86.30;;;;;;5094322;28;19908;-46
2023/01/24 12:03:46;;;;;;;;;;;17.80;86.40;;;;;;5093704;28;19988;-44
2023/01/24 12:06:11;;;;;;;;;;;17.80;86.30;;;;;;5094139;28;19977;-47
2023/01/24 12:08:37;;;;;;;;;;;17.80;86.10;;;;;;5093761;28;19912;-48
2023/01/24 12:11:25;;;;;;;;;;;17.90;86.00;;;;;;5093820;28;20260;-46
2023/01/24 12:13:51;;;;;;;;;;;17.90;85.80;;;;;;5094109;28;19991;-46
2023/01/24 12:16:31;;;;;;;;;;;18.00;85.70;;;;;;5093828;28;20007;-44
2023/01/24 12:19:15;;;;;;;;;;;18.00;85.70;;;;;;5094062;28;19912;-47
2023/01/24 12:21:41;;;;;;;;;;;18.00;85.70;;;;;;5093759;28;19908;-47
2023/01/24 12:24:13;;;;;;;;;;;18.00;85.70;;;;;;5093860;28;19908;-46
2023/01/24 12:26:40;;;;;;;;;;;18.00;85.70;;;;;;5093453;28;19914;-44
2023/01/24 12:29:11;;;;;;;;;;;18.00;85.70;;;;;;5093246;28;20282;-46
2023/01/24 12:31:46;;;;;;;;;;;17.90;85.80;;;;;;5093612;28;20256;-46
2023/01/24 12:34:21;;;;;;;;;;;17.90;85.80;;;;;;5093829;28;20004;-45
2023/01/24 12:36:48;;;;;;;;;;;17.90;85.90;;;;;;5093312;28;19967;-44
2023/01/24 12:39:21;;;;;;;;;;;17.90;86.00;;;;;;5093205;28;20286;-46
2023/01/24 12:42:08;;;;;;;;;;;17.80;85.90;;;;;;5075487;28;20351;-45
2023/01/24 12:44:48;;;;;;;;;;;17.80;86.00;;;;;;5093801;28;19954;-47
2023/01/24 12:47:22;;;;;;;;;;;17.80;86.10;;;;;;5097471;28;19908;-47
2023/01/24 12:49:56;;;;;;;;;;;17.70;86.10;;;;;;5097669;28;19909;-47
2023/01/24 12:52:26;;;;;;;;;;;17.70;86.10;;;;;;5097232;28;20382;-48
2023/01/24 12:55:10;;;;;;;;;;;17.70;86.20;;;;;;5097244;28;19919;-46
2023/01/24 12:57:54;;;;;;;;;;;17.70;86.20;;;;;;5097310;28;19912;-46
2023/01/24 13:00:21;;;;;;;;;;;17.60;86.20;;;;;;5097325;28;20298;-46
2023/01/24 13:03:05;;;;;;;;;;;17.60;86.20;;;;;;5097414;28;19912;-45
2023/01/24 13:05:38;;;;;;;;;;;17.60;86.20;;;;;;5097185;28;20319;-48
2023/01/24 13:08:16;;;;;;;;;;;17.60;86.10;;;;;;5097393;28;20337;-46
2023/01/24 13:10:50;;;;;;;;;;;17.60;86.20;;;;;;5097227;28;20315;-48
2023/01/24 13:13:30;;;;;;;;;;;17.60;86.20;;;;;;5096976;28;19908;-47
2023/01/24 13:16:14;;;;;;;;;;;17.70;86.10;;;;;;5096926;28;19912;-43
2023/01/24 13:18:42;;;;;;;;;;;17.80;86.00;;;;;;5097134;28;19919;-44
2023/01/24 13:21:33;;;;;;;;;;;17.90;85.60;;;;;;5096872;28;19944;-48
2023/01/24 13:24:18;;;;;;;;;;;18.00;85.20;;;;;;5093421;28;19914;-48
2023/01/24 13:26:54;;;;;;;;;;;18.10;85.10;;;;;;5096791;28;19909;-45
2023/01/24 13:29:37;;;;;;;;;;;18.10;84.90;;;;;;5096841;28;19908;-45
2023/01/24 13:32:06;;;;;;;;;;;18.10;84.90;;;;;;5097467;28;19912;-49
2023/01/24 13:34:34;;;;;;;;;;;18.10;84.90;;;;;;5078867;28;19908;-45
2023/01/24 13:37:00;;;;;;;;;;;18.10;85.50;;;;;;5096724;28;19938;-48
2023/01/24 13:39:41;;;;;;;;;;;18.10;85.50;;;;;;5096861;28;19908;-44
2023/01/24 13:42:12;;;;;;;;;;;18.00;85.10;;;;;;5096712;28;19912;-43
2023/01/24 13:44:37;;;;;;;;;;;18.00;85.30;;;;;;5096554;28;19908;-44
2023/01/24 13:47:09;;;;;;;;;;;17.90;85.30;;;;;;5096201;28;19961;-47
2023/01/24 13:49:38;;;;;;;;;;;17.90;85.30;;;;;;5096594;28;19966;-48
2023/01/24 13:52:04;;;;;;;;;;;17.90;85.40;;;;;;5096908;28;19961;-48
2023/01/24 13:54:43;;;;;;;;;;;17.90;85.50;;;;;;5096435;28;19990;-50
2023/01/24 13:57:08;;;;;;;;;;;17.80;85.50;;;;;;5077876;28;20351;-48
2023/01/24 13:59:37;;;;;;;;;;;17.80;85.60;;;;;;5096271;28;19908;-48
2023/01/24 14:02:02;;;;;;;;;;;17.80;85.60;;;;;;5096223;28;19927;-46
2023/01/24 14:04:42;;;;;;;;;;;17.80;86.20;;;;;;5096768;28;19908;-45
2023/01/24 14:07:18;;;;;;;;;;;17.70;85.70;;;;;;5078206;28;20337;-46
2023/01/24 14:09:44;;;;;;;;;;;17.70;85.80;;;;;;5096304;28;19944;-45
2023/01/24 14:12:15;;;;;;;;;;;17.70;85.90;;;;;;5096279;28;19919;-48
2023/01/24 14:14:59;;;;;;;;;;;17.60;85.90;;;;;;5095889;28;19943;-45
2023/01/24 14:17:27;;;;;;;;;;;17.60;85.90;;;;;;5096105;28;19908;-44
2023/01/24 14:19:54;;;;;;;;;;;17.60;85.90;;;;;;5095756;28;20271;-44
2023/01/24 14:22:21;;;;;;;;;;;17.60;85.90;;;;;;5077974;28;19908;-47
2023/01/24 14:24:51;;;;;;;;;;;17.60;85.90;;;;;;5095890;28;19955;-47
2023/01/24 14:27:18;;;;;;;;;;;17.50;85.90;;;;;;5077696;28;19909;-49
2023/01/24 14:29:45;;;;;;;;;;;17.60;86.00;;;;;;5095269;28;20290;-46
2023/01/24 14:32:34;;;;;;;;;;;17.60;85.90;;;;;;5095502;28;20049;-51
2023/01/24 14:35:07;;;;;;;;;;;17.60;85.80;;;;;;5095416;28;20065;-47
2023/01/24 14:37:33;;;;;;;;;;;17.80;85.70;;;;;;5095211;28;19920;-43
2023/01/24 14:40:17;;;;;;;;;;;17.90;85.10;;;;;;5095616;28;19930;-44
2023/01/24 14:42:42;;;;;;;;;;;18.00;84.90;;;;;;5095441;28;19915;-47
2023/01/24 14:45:16;;;;;;;;;;;18.00;84.70;;;;;;5094912;28;19908;-46
2023/01/24 14:47:45;;;;;;;;;;;18.00;84.70;;;;;;5077375;28;20387;-46
2023/01/24 14:50:19;;;;;;;;;;;18.00;84.70;;;;;;5095089;28;20380;-48
2023/01/24 14:52:45;;;;;;;;;;;18.00;84.80;;;;;;5095267;28;20267;-46
2023/01/24 14:55:16;;;;;;;;;;;18.00;84.80;;;;;;5094589;28;19916;-46
2023/01/24 14:57:41;;;;;;;;;;;17.90;84.90;;;;;;5095082;28;19908;-48
2023/01/24 15:00:10;;;;;;;;;;;17.90;85.00;;;;;;5095023;28;19908;-44
2023/01/24 15:02:36;;;;;;;;;;;17.90;85.10;;;;;;5095271;28;19915;-44